The Standard — WDJ6618 — position and weather

sailwx.info

Track history (hours):
 
Tides and Currents Weather Stations Pressure Air Temp Water Temp Dewpoint Dewpoint Depression Visibility Wind Speed Wind Dir Waves Ship Positions

The Standard

Owner: Capo Shores, LLC, Corona, CA. More information available from US FCC via Universal Licensing System and Coast Guard Vessel Documentation Center.

Last reported at 2018-Aug-13 01:36 UTC. Time now 2018-Aug-20 16:47 UTC.
Position N 33°37' W 117°56'.

Length 24 m.

Type: Passenger vessel. MMSI: 367799570.

Date/timePositionNaut miles runAvg speedWind from/ knotsBaromVisibWave heightAir tempDewpointWater temp
2018-Aug-13 01:36N 33°37' W 117°56'0 0.0
2018-Aug-13 01:30N 33°37' W 117°56'0 0.0
2018-Aug-13 01:00N 33°37' W 117°56'0 0.0
2018-Aug-13 00:30N 33°37' W 117°56'0 0.1
2018-Aug-13 00:00N 33°37' W 117°56'2 4.9
2018-Aug-12 23:30N 33°36' W 117°53'3 6.5
2018-Aug-12 23:00N 33°34' W 117°56'5 9.1
2018-Aug-12 22:30N 33°34' W 118°02'5 9.4
2018-Aug-12 22:00N 33°33' W 118°07'4 9.0
2018-Aug-12 21:30N 33°32' W 118°12'4 8.8
2018-Aug-12 21:01N 33°31' W 118°17'5 9.0
2018-Aug-12 20:29N 33°29' W 118°23'4 8.8
2018-Aug-12 19:59N 33°28' W 118°28'2 3.9
2018-Aug-12 19:30N 33°27' W 118°30'0 0.0
2018-Aug-12 19:00N 33°27' W 118°30'0 0.0
2018-Aug-12 18:07N 33°27' W 118°30'0 0.0
2018-Aug-12 17:44N 33°27' W 118°30'0 0.0
2018-Aug-12 17:28N 33°27' W 118°30'0 0.0
2018-Aug-12 16:42N 33°27' W 118°30'0 0.0
2018-Aug-12 16:18N 33°27' W 118°30'0 0.0
2018-Aug-12 16:00N 33°27' W 118°30'0 0.0
2018-Aug-12 15:30N 33°27' W 118°30'0 0.0
2018-Aug-12 15:00N 33°27' W 118°30'0 0.0
2018-Aug-12 14:30N 33°27' W 118°30'0 0.0
2018-Aug-12 13:59N 33°27' W 118°30'0 0.0
2018-Aug-12 13:31N 33°27' W 118°30'0 0.0
2018-Aug-12 12:11N 33°27' W 118°30'0 0.0
2018-Aug-12 10:07N 33°27' W 118°30'0 0.0
2018-Aug-12 09:58N 33°27' W 118°30'0 0.0
2018-Aug-12 09:30N 33°27' W 118°30'0 0.0
2018-Aug-12 08:59N 33°27' W 118°30'0 0.0
2018-Aug-12 08:30N 33°27' W 118°30'0 0.0
2018-Aug-12 07:59N 33°27' W 118°30'0 0.0
2018-Aug-12 07:30N 33°27' W 118°30'0 0.0
2018-Aug-12 07:00N 33°27' W 118°30'0 0.0
2018-Aug-12 06:30N 33°27' W 118°30'0 0.0
2018-Aug-12 06:00N 33°27' W 118°30'0 0.0
2018-Aug-12 05:30N 33°27' W 118°30'0 0.0
2018-Aug-12 04:59N 33°27' W 118°30'0 0.0
2018-Aug-12 01:51N 33°27' W 118°30'0 0.0
2018-Aug-12 01:23N 33°27' W 118°30'0 0.0
2018-Aug-12 00:54N 33°27' W 118°30'0 0.0
2018-Aug-11 22:25N 33°27' W 118°30'0 0.0
2018-Aug-11 21:52N 33°27' W 118°30'0 0.0
2018-Aug-11 21:04N 33°27' W 118°30'0 0.0
2018-Aug-11 20:53N 33°27' W 118°30'0 0.0
2018-Aug-11 20:24N 33°27' W 118°30'0 0.0
2018-Aug-11 20:00N 33°27' W 118°30'0 0.0
2018-Aug-11 19:29N 33°27' W 118°30'0 0.0
2018-Aug-11 19:00N 33°27' W 118°30'0 0.0
2018-Aug-11 18:29N 33°27' W 118°30'0 0.0
2018-Aug-11 17:59N 33°27' W 118°30'0 0.7
2018-Aug-11 17:30N 33°27' W 118°30'4 7.3
2018-Aug-11 16:59N 33°28' W 118°25'3 6.9
2018-Aug-11 16:29N 33°28' W 118°21'3 6.1
2018-Aug-11 16:00N 33°28' W 118°18'4 7.7
2018-Aug-11 15:30N 33°29' W 118°13'4 7.5
2018-Aug-11 15:00N 33°29' W 118°09'3 7.0
2018-Aug-11 14:31N 33°29' W 118°05'4 7.7
2018-Aug-11 14:00N 33°31' W 118°00'4 8.1
2018-Aug-11 13:30N 33°33' W 117°56'4 7.4
2018-Aug-11 13:01N 33°35' W 117°53'2 3.3
2018-Aug-11 12:30N 33°37' W 117°54'  
2018-Aug-04 08:22N 33°37' W 117°56'2 4.5
2018-Aug-04 08:00N 33°36' W 117°54'3 5.3
2018-Aug-04 07:30N 33°34' W 117°53'3 7.0
2018-Aug-04 07:00N 33°31' W 117°55'4 7.0
2018-Aug-04 06:31N 33°28' W 117°58'4 7.1
2018-Aug-04 06:00N 33°25' W 118°01'4 7.2
2018-Aug-04 05:30N 33°23' W 118°03'4 7.2
2018-Aug-04 05:01N 33°20' W 118°06'4 7.2
2018-Aug-04 04:31N 33°17' W 118°09'4 7.4
2018-Aug-04 04:01N 33°15' W 118°12'4 7.4
2018-Aug-04 03:30N 33°12' W 118°16'4 7.3
2018-Aug-04 03:00N 33°11' W 118°20'4 7.3
2018-Aug-04 02:30N 33°09' W 118°23'4 7.5
2018-Aug-04 02:01N 33°07' W 118°27'4 7.4
2018-Aug-04 01:31N 33°06' W 118°31'4 7.4
2018-Aug-04 01:01N 33°04' W 118°36'3 6.7
2018-Aug-04 00:30N 33°03' W 118°39'3 6.6
2018-Aug-04 00:00N 33°00' W 118°41'3 6.0
2018-Aug-03 23:30N 33°03' W 118°40'0 0.9
2018-Aug-03 23:00N 33°02' W 118°39'1 2.3
2018-Aug-03 22:30N 33°01' W 118°39'2 4.2
2018-Aug-03 22:00N 32°59' W 118°39'1 2.4
2018-Aug-03 21:30N 32°58' W 118°40'4 6.3
2018-Aug-03 20:52N 33°02' W 118°39'1 2.1
2018-Aug-03 20:30N 33°02' W 118°39'0 0.5
2018-Aug-03 20:00N 33°02' W 118°39'0 0.6
2018-Aug-03 19:30N 33°02' W 118°39'0 0.5
2018-Aug-03 19:00N 33°02' W 118°40'0 0.6
2018-Aug-03 18:30N 33°02' W 118°40'0 0.5
2018-Aug-03 18:01N 33°01' W 118°40'1 1.8
2018-Aug-03 17:30N 33°01' W 118°41'1 1.2
2018-Aug-03 17:00N 32°60' W 118°41'2 3.4
2018-Aug-03 16:30N 32°58' W 118°42'4 6.9
2018-Aug-03 15:59N 32°55' W 118°39'7 6.7
2018-Aug-03 14:56N 32°50' W 118°34'3 6.4
2018-Aug-03 14:30N 32°48' W 118°32'3 5.8
2018-Aug-03 14:00N 32°48' W 118°29'4 5.5
2018-Aug-03 13:20N 32°49' W 118°33'8 5.8
2018-Aug-03 11:56N 32°55' W 118°40'4 6.0
2018-Aug-03 11:17N 32°57' W 118°44'1 3.8
2018-Aug-03 11:00N 32°56' W 118°43'2 4.6
2018-Aug-03 10:30N 32°58' W 118°41'4 7.3
2018-Aug-03 10:00N 33°01' W 118°40'4 7.6
2018-Aug-03 09:29N 33°05' W 118°38'4 8.5
2018-Aug-03 09:00N 33°06' W 118°33'4 8.5
2018-Aug-03 08:30N 33°08' W 118°29'4 8.8
2018-Aug-03 08:00N 33°09' W 118°24'4 8.7
2018-Aug-03 07:30N 33°11' W 118°19'4 8.7
2018-Aug-03 07:00N 33°13' W 118°14'4 8.4
2018-Aug-03 06:31N 33°14' W 118°10'4 8.5
2018-Aug-03 06:00N 33°16' W 118°05'4 8.4
2018-Aug-03 05:31N 33°19' W 118°01'4 8.4
2018-Aug-03 05:00N 33°21' W 117°56'4 8.4
2018-Aug-03 04:30N 33°23' W 117°52'4 8.7
2018-Aug-03 04:00N 33°25' W 117°47'4 8.7
2018-Aug-03 03:31N 33°26' W 117°43'1 2.6
2018-Aug-03 03:01N 33°27' W 117°41'4 8.5
2018-Aug-03 02:31N 33°29' W 117°46'5 9.1
2018-Aug-03 02:01N 33°33' W 117°50'  
Track history (hours):
 
Tides and Currents Weather Stations Pressure Air Temp Water Temp Dewpoint Dewpoint Depression Visibility Wind Speed Wind Dir Waves Ship Positions

The Standard

Owner: Capo Shores, LLC, Corona, CA. More information available from US FCC via Universal Licensing System and Coast Guard Vessel Documentation Center.

Last reported at 2018-Aug-13 01:36 UTC. Time now 2018-Aug-20 16:47 UTC.
Position N 33°37' W 117°56'.

Length 24 m.

Type: Passenger vessel. MMSI: 367799570.

Date/timePositionNaut miles runAvg speedWind from/ knotsBaromVisibWave heightAir tempDewpointWater temp
2018-Aug-13 01:36N 33°37' W 117°56'0 0.0
2018-Aug-13 01:30N 33°37' W 117°56'0 0.0
2018-Aug-13 01:00N 33°37' W 117°56'0 0.0
2018-Aug-13 00:30N 33°37' W 117°56'0 0.1
2018-Aug-13 00:00N 33°37' W 117°56'2 4.9
2018-Aug-12 23:30N 33°36' W 117°53'3 6.5
2018-Aug-12 23:00N 33°34' W 117°56'5 9.1
2018-Aug-12 22:30N 33°34' W 118°02'5 9.4
2018-Aug-12 22:00N 33°33' W 118°07'4 9.0
2018-Aug-12 21:30N 33°32' W 118°12'4 8.8
2018-Aug-12 21:01N 33°31' W 118°17'5 9.0
2018-Aug-12 20:29N 33°29' W 118°23'4 8.8
2018-Aug-12 19:59N 33°28' W 118°28'2 3.9
2018-Aug-12 19:30N 33°27' W 118°30'0 0.0
2018-Aug-12 19:00N 33°27' W 118°30'0 0.0
2018-Aug-12 18:07N 33°27' W 118°30'0 0.0
2018-Aug-12 17:44N 33°27' W 118°30'0 0.0
2018-Aug-12 17:28N 33°27' W 118°30'0 0.0
2018-Aug-12 16:42N 33°27' W 118°30'0 0.0
2018-Aug-12 16:18N 33°27' W 118°30'0 0.0
2018-Aug-12 16:00N 33°27' W 118°30'0 0.0
2018-Aug-12 15:30N 33°27' W 118°30'0 0.0
2018-Aug-12 15:00N 33°27' W 118°30'0 0.0
2018-Aug-12 14:30N 33°27' W 118°30'0 0.0
2018-Aug-12 13:59N 33°27' W 118°30'0 0.0
2018-Aug-12 13:31N 33°27' W 118°30'0 0.0
2018-Aug-12 12:11N 33°27' W 118°30'0 0.0
2018-Aug-12 10:07N 33°27' W 118°30'0 0.0
2018-Aug-12 09:58N 33°27' W 118°30'0 0.0
2018-Aug-12 09:30N 33°27' W 118°30'0 0.0
2018-Aug-12 08:59N 33°27' W 118°30'0 0.0
2018-Aug-12 08:30N 33°27' W 118°30'0 0.0
2018-Aug-12 07:59N 33°27' W 118°30'0 0.0
2018-Aug-12 07:30N 33°27' W 118°30'0 0.0
2018-Aug-12 07:00N 33°27' W 118°30'0 0.0
2018-Aug-12 06:30N 33°27' W 118°30'0 0.0
2018-Aug-12 06:00N 33°27' W 118°30'0 0.0
2018-Aug-12 05:30N 33°27' W 118°30'0 0.0
2018-Aug-12 04:59N 33°27' W 118°30'0 0.0
2018-Aug-12 01:51N 33°27' W 118°30'0 0.0
2018-Aug-12 01:23N 33°27' W 118°30'0 0.0
2018-Aug-12 00:54N 33°27' W 118°30'0 0.0
2018-Aug-11 22:25N 33°27' W 118°30'0 0.0
2018-Aug-11 21:52N 33°27' W 118°30'0 0.0
2018-Aug-11 21:04N 33°27' W 118°30'0 0.0
2018-Aug-11 20:53N 33°27' W 118°30'0 0.0
2018-Aug-11 20:24N 33°27' W 118°30'0 0.0
2018-Aug-11 20:00N 33°27' W 118°30'0 0.0
2018-Aug-11 19:29N 33°27' W 118°30'0 0.0
2018-Aug-11 19:00N 33°27' W 118°30'0 0.0
2018-Aug-11 18:29N 33°27' W 118°30'0 0.0
2018-Aug-11 17:59N 33°27' W 118°30'0 0.7
2018-Aug-11 17:30N 33°27' W 118°30'4 7.3
2018-Aug-11 16:59N 33°28' W 118°25'3 6.9
2018-Aug-11 16:29N 33°28' W 118°21'3 6.1
2018-Aug-11 16:00N 33°28' W 118°18'4 7.7
2018-Aug-11 15:30N 33°29' W 118°13'4 7.5
2018-Aug-11 15:00N 33°29' W 118°09'3 7.0
2018-Aug-11 14:31N 33°29' W 118°05'4 7.7
2018-Aug-11 14:00N 33°31' W 118°00'4 8.1
2018-Aug-11 13:30N 33°33' W 117°56'4 7.4
2018-Aug-11 13:01N 33°35' W 117°53'2 3.3
2018-Aug-11 12:30N 33°37' W 117°54'  
2018-Aug-04 08:22N 33°37' W 117°56'2 4.5
2018-Aug-04 08:00N 33°36' W 117°54'3 5.3
2018-Aug-04 07:30N 33°34' W 117°53'3 7.0
2018-Aug-04 07:00N 33°31' W 117°55'4 7.0
2018-Aug-04 06:31N 33°28' W 117°58'4 7.1
2018-Aug-04 06:00N 33°25' W 118°01'4 7.2
2018-Aug-04 05:30N 33°23' W 118°03'4 7.2
2018-Aug-04 05:01N 33°20' W 118°06'4 7.2
2018-Aug-04 04:31N 33°17' W 118°09'4 7.4
2018-Aug-04 04:01N 33°15' W 118°12'4 7.4
2018-Aug-04 03:30N 33°12' W 118°16'4 7.3
2018-Aug-04 03:00N 33°11' W 118°20'4 7.3
2018-Aug-04 02:30N 33°09' W 118°23'4 7.5
2018-Aug-04 02:01N 33°07' W 118°27'4 7.4
2018-Aug-04 01:31N 33°06' W 118°31'4 7.4
2018-Aug-04 01:01N 33°04' W 118°36'3 6.7
2018-Aug-04 00:30N 33°03' W 118°39'3 6.6
2018-Aug-04 00:00N 33°00' W 118°41'3 6.0
2018-Aug-03 23:30N 33°03' W 118°40'0 0.9
2018-Aug-03 23:00N 33°02' W 118°39'1 2.3
2018-Aug-03 22:30N 33°01' W 118°39'2 4.2
2018-Aug-03 22:00N 32°59' W 118°39'1 2.4
2018-Aug-03 21:30N 32°58' W 118°40'4 6.3
2018-Aug-03 20:52N 33°02' W 118°39'1 2.1
2018-Aug-03 20:30N 33°02' W 118°39'0 0.5
2018-Aug-03 20:00N 33°02' W 118°39'0 0.6
2018-Aug-03 19:30N 33°02' W 118°39'0 0.5
2018-Aug-03 19:00N 33°02' W 118°40'0 0.6
2018-Aug-03 18:30N 33°02' W 118°40'0 0.5
2018-Aug-03 18:01N 33°01' W 118°40'1 1.8
2018-Aug-03 17:30N 33°01' W 118°41'1 1.2
2018-Aug-03 17:00N 32°60' W 118°41'2 3.4
2018-Aug-03 16:30N 32°58' W 118°42'4 6.9
2018-Aug-03 15:59N 32°55' W 118°39'7 6.7
2018-Aug-03 14:56N 32°50' W 118°34'3 6.4
2018-Aug-03 14:30N 32°48' W 118°32'3 5.8
2018-Aug-03 14:00N 32°48' W 118°29'4 5.5
2018-Aug-03 13:20N 32°49' W 118°33'8 5.8
2018-Aug-03 11:56N 32°55' W 118°40'4 6.0
2018-Aug-03 11:17N 32°57' W 118°44'1 3.8
2018-Aug-03 11:00N 32°56' W 118°43'2 4.6
2018-Aug-03 10:30N 32°58' W 118°41'4 7.3
2018-Aug-03 10:00N 33°01' W 118°40'4 7.6
2018-Aug-03 09:29N 33°05' W 118°38'4 8.5
2018-Aug-03 09:00N 33°06' W 118°33'4 8.5
2018-Aug-03 08:30N 33°08' W 118°29'4 8.8
2018-Aug-03 08:00N 33°09' W 118°24'4 8.7
2018-Aug-03 07:30N 33°11' W 118°19'4 8.7
2018-Aug-03 07:00N 33°13' W 118°14'4 8.4
2018-Aug-03 06:31N 33°14' W 118°10'4 8.5
2018-Aug-03 06:00N 33°16' W 118°05'4 8.4
2018-Aug-03 05:31N 33°19' W 118°01'4 8.4
2018-Aug-03 05:00N 33°21' W 117°56'4 8.4
2018-Aug-03 04:30N 33°23' W 117°52'4 8.7
2018-Aug-03 04:00N 33°25' W 117°47'4 8.7
2018-Aug-03 03:31N 33°26' W 117°43'1 2.6
2018-Aug-03 03:01N 33°27' W 117°41'4 8.5
2018-Aug-03 02:31N 33°29' W 117°46'5 9.1
2018-Aug-03 02:01N 33°33' W 117°50'  

Dump ship's entire track history